Time;durP1;ratioP1;P1;durP2;ratioP2;P2;SDS_P1;SDS_P2;PMS_P1;PMS_P2;Temp;Humidity;BMP_temperature;BMP_pressure;BME280_temperature;BME280_humidity;BME280_pressure;Samples;Min_cycle;Max_cycle;Signal;HPM_P1;HPM_P2
2022/01/05 00:00:10;;;;;;;;;;;0.60;99.90;;;;;;6230968;22;19994;-88
2022/01/05 00:02:36;;;;;;;;;;;0.50;99.90;;;;;;6255962;22;20224;-88
2022/01/05 00:05:02;;;;;;;;;;;0.30;99.90;;;;;;6230757;22;19915;-88
2022/01/05 00:07:28;;;;;;;;;;;0.10;99.90;;;;;;6230880;22;19971;-88
2022/01/05 00:09:53;;;;;;;;;;;0.30;99.90;;;;;;6230402;22;19972;-89
2022/01/05 00:12:19;;;;;;;;;;;0.50;99.90;;;;;;6230450;22;20033;-89
2022/01/05 00:14:44;;;;;;;;;;;0.40;99.90;;;;;;6230840;22;19929;-88
2022/01/05 00:17:10;;;;;;;;;;;0.40;99.90;;;;;;6281210;22;19989;-88
2022/01/05 00:19:36;;;;;;;;;;;0.40;99.90;;;;;;6230359;22;19915;-88
2022/01/05 00:22:02;;;;;;;;;;;0.20;99.90;;;;;;6230688;22;19919;-88
2022/01/05 00:24:27;;;;;;;;;;;0.30;99.90;;;;;;6255814;22;19915;-88
2022/01/05 00:26:53;;;;;;;;;;;0.10;99.90;;;;;;6281373;22;19919;-89
2022/01/05 00:29:18;;;;;;;;;;;0.20;99.90;;;;;;6230378;22;19922;-88
2022/01/05 00:31:44;;;;;;;;;;;0.20;99.90;;;;;;6281050;22;19918;-89
2022/01/05 00:34:09;;;;;;;;;;;0.50;99.90;;;;;;6230348;22;20314;-88
2022/01/05 00:36:35;;;;;;;;;;;0.30;99.90;;;;;;6230285;22;19926;-89
2022/01/05 00:39:00;;;;;;;;;;;1.50;99.90;;;;;;6255294;22;19938;-88
2022/01/05 00:41:26;;;;;;;;;;;0.40;99.90;;;;;;6230072;22;20243;-88
2022/01/05 00:43:51;;;;;;;;;;;0.50;99.90;;;;;;6230235;22;19994;-89
2022/01/05 00:46:17;;;;;;;;;;;0.40;99.90;;;;;;6230204;22;20346;-88
2022/01/05 00:48:42;;;;;;;;;;;0.20;99.90;;;;;;6229884;22;19990;-89
2022/01/05 00:51:09;;;;;;;;;;;0.20;99.90;;;;;;6280934;22;19922;-89
2022/01/05 00:53:35;;;;;;;;;;;0.00;99.90;;;;;;6255499;22;19929;-88
2022/01/05 00:56:03;;;;;;;;;;;0.30;99.90;;;;;;6230030;22;19915;-88
2022/01/05 00:58:29;;;;;;;;;;;1.10;99.90;;;;;;6230240;22;20349;-88
2022/01/05 01:00:54;;;;;;;;;;;0.90;99.90;;;;;;6280977;22;19946;-88
2022/01/05 01:03:20;;;;;;;;;;;0.70;99.90;;;;;;6230124;22;19990;-89
2022/01/05 01:05:45;;;;;;;;;;;0.50;99.90;;;;;;6280709;22;19936;-88
2022/01/05 01:08:11;;;;;;;;;;;0.50;99.90;;;;;;6255099;22;19915;-88
2022/01/05 01:10:36;;;;;;;;;;;0.50;99.90;;;;;;6230039;22;19950;-88
2022/01/05 01:13:02;;;;;;;;;;;0.60;99.90;;;;;;6230003;22;20001;-89
2022/01/05 01:15:28;;;;;;;;;;;0.50;99.90;;;;;;6255225;22;20320;-89
2022/01/05 01:17:53;;;;;;;;;;;0.70;99.90;;;;;;6229835;22;19915;-88
2022/01/05 01:20:20;;;;;;;;;;;0.50;99.90;;;;;;6255195;22;19914;-88
2022/01/05 01:22:45;;;;;;;;;;;0.70;99.90;;;;;;6230533;22;20255;-88
2022/01/05 01:25:11;;;;;;;;;;;0.70;99.90;;;;;;6255383;22;19958;-88
2022/01/05 01:27:40;;;;;;;;;;;0.60;99.90;;;;;;6230348;22;19994;-89
2022/01/05 01:30:06;;;;;;;;;;;2.20;99.90;;;;;;6230746;22;19997;-89
2022/01/05 01:32:31;;;;;;;;;;;0.80;99.90;;;;;;6225357;22;19947;-88
2022/01/05 01:34:57;;;;;;;;;;;0.60;99.90;;;;;;6219589;23;19973;-88
2022/01/05 01:37:22;;;;;;;;;;;0.70;99.90;;;;;;6219595;23;20037;-88
2022/01/05 01:39:48;;;;;;;;;;;0.80;99.90;;;;;;6219689;23;19922;-89
2022/01/05 01:42:13;;;;;;;;;;;0.50;99.90;;;;;;6194437;23;20332;-88
2022/01/05 01:44:39;;;;;;;;;;;1.00;99.90;;;;;;6244839;23;19919;-89
2022/01/05 01:47:04;;;;;;;;;;;2.10;99.90;;;;;;6194237;23;19926;-88
2022/01/05 01:49:30;;;;;;;;;;;1.50;99.90;;;;;;6194224;23;19915;-89
2022/01/05 01:51:55;;;;;;;;;;;1.10;99.90;;;;;;6193832;23;19919;-88
2022/01/05 01:54:21;;;;;;;;;;;0.40;99.90;;;;;;6194840;23;19919;-87
2022/01/05 01:56:47;;;;;;;;;;;0.50;99.90;;;;;;6194344;23;19942;-88
2022/01/05 01:59:12;;;;;;;;;;;0.50;99.90;;;;;;6169534;23;19920;-89
2022/01/05 02:01:39;;;;;;;;;;;0.70;99.90;;;;;;6169318;23;19916;-88
2022/01/05 02:04:05;;;;;;;;;;;0.30;99.90;;;;;;6194195;23;19970;-87
2022/01/05 02:06:31;;;;;;;;;;;0.90;99.90;;;;;;6169390;23;20287;-89
2022/01/05 02:08:58;;;;;;;;;;;0.80;99.90;;;;;;6170647;23;19916;-89
2022/01/05 02:11:25;;;;;;;;;;;0.10;99.90;;;;;;6169502;23;19919;-88
2022/01/05 02:13:51;;;;;;;;;;;0.40;99.90;;;;;;6169634;23;19975;-88
2022/01/05 02:16:20;;;;;;;;;;;0.50;99.90;;;;;;6194307;23;19978;-88
2022/01/05 02:18:58;;;;;;;;;;;0.50;99.90;;;;;;6169272;23;19922;-88
2022/01/05 02:21:24;;;;;;;;;;;1.00;99.90;;;;;;6194179;23;19915;-89
2022/01/05 02:23:49;;;;;;;;;;;0.30;99.90;;;;;;6194777;23;19977;-88
2022/01/05 02:26:17;;;;;;;;;;;1.10;99.90;;;;;;6169357;23;20240;-88
2022/01/05 02:28:43;;;;;;;;;;;0.10;99.90;;;;;;6194441;23;19916;-88
2022/01/05 02:31:08;;;;;;;;;;;0.00;99.90;;;;;;6200998;22;20347;-89
2022/01/05 02:33:34;;;;;;;;;;;0.00;99.90;;;;;;6224236;22;19965;-88
2022/01/05 02:36:00;;;;;;;;;;;0.20;99.90;;;;;;6199515;22;19919;-88
2022/01/05 02:38:25;;;;;;;;;;;0.90;99.90;;;;;;6224401;22;20294;-89
2022/01/05 02:40:51;;;;;;;;;;;0.20;99.90;;;;;;6224170;22;19947;-88
2022/01/05 02:43:16;;;;;;;;;;;0.20;99.90;;;;;;6224218;22;19915;-88
2022/01/05 02:45:42;;;;;;;;;;;0.40;99.90;;;;;;6224460;22;19921;-88
2022/01/05 02:48:07;;;;;;;;;;;0.80;99.90;;;;;;6223905;22;20347;-88
2022/01/05 02:50:33;;;;;;;;;;;1.10;99.90;;;;;;6199483;22;19922;-89
2022/01/05 02:52:59;;;;;;;;;;;1.00;99.90;;;;;;6224624;22;19916;-88
2022/01/05 02:55:24;;;;;;;;;;;0.30;99.90;;;;;;6224098;22;19923;-89
2022/01/05 02:57:50;;;;;;;;;;;0.40;99.90;;;;;;6199071;22;19915;-88
2022/01/05 03:00:16;;;;;;;;;;;0.50;99.90;;;;;;6224517;22;19919;-89
2022/01/05 03:02:42;;;;;;;;;;;0.60;99.90;;;;;;6224853;22;19915;-89
2022/01/05 03:05:08;;;;;;;;;;;1.50;99.90;;;;;;6201443;22;19960;-88
2022/01/05 03:07:38;;;;;;;;;;;0.70;99.90;;;;;;6201254;22;19915;-88
2022/01/05 03:10:04;;;;;;;;;;;0.40;99.90;;;;;;6251469;22;19977;-88
2022/01/05 03:12:30;;;;;;;;;;;0.70;99.90;;;;;;6225833;22;20328;-89
2022/01/05 03:14:55;;;;;;;;;;;1.50;99.90;;;;;;6200833;22;19973;-89
2022/01/05 03:17:21;;;;;;;;;;;0.60;99.90;;;;;;6225816;22;19938;-89
2022/01/05 03:19:46;;;;;;;;;;;0.60;99.90;;;;;;6200932;22;19915;-89
2022/01/05 03:22:12;;;;;;;;;;;0.70;99.90;;;;;;6225800;22;19925;-88
2022/01/05 03:24:37;;;;;;;;;;;0.80;99.90;;;;;;6225924;22;19965;-88
2022/01/05 03:27:03;;;;;;;;;;;0.80;99.90;;;;;;6200835;22;19915;-88
2022/01/05 03:29:29;;;;;;;;;;;1.20;99.90;;;;;;6225992;22;20391;-89
2022/01/05 03:31:54;;;;;;;;;;;1.30;99.90;;;;;;6237655;22;19919;-89
2022/01/05 03:34:20;;;;;;;;;;;1.40;99.90;;;;;;6281783;22;19925;-89
2022/01/05 03:36:46;;;;;;;;;;;2.10;99.90;;;;;;6231112;22;19944;-89
2022/01/05 03:39:12;;;;;;;;;;;1.30;99.90;;;;;;6256261;22;19922;-89
2022/01/05 03:41:37;;;;;;;;;;;1.30;99.90;;;;;;6230869;22;20024;-91
2022/01/05 03:44:04;;;;;;;;;;;1.30;99.90;;;;;;6231068;22;19922;-88
2022/01/05 03:46:29;;;;;;;;;;;1.70;99.90;;;;;;6256486;22;19915;-88
2022/01/05 03:48:55;;;;;;;;;;;1.50;99.90;;;;;;6231004;22;19926;-89
2022/01/05 03:51:20;;;;;;;;;;;2.20;99.90;;;;;;6230889;22;19914;-88
2022/01/05 03:53:46;;;;;;;;;;;1.40;99.90;;;;;;6255928;22;19964;-89
2022/01/05 03:56:11;;;;;;;;;;;1.40;99.90;;;;;;6256045;22;19953;-88
2022/01/05 03:58:37;;;;;;;;;;;1.70;99.90;;;;;;6256507;22;19989;-88
2022/01/05 04:01:02;;;;;;;;;;;1.30;99.90;;;;;;6230623;22;19915;-89
2022/01/05 04:03:30;;;;;;;;;;;1.50;99.90;;;;;;6281692;22;19968;-89
2022/01/05 04:05:56;;;;;;;;;;;2.10;99.90;;;;;;6256015;22;20033;-88
2022/01/05 04:08:21;;;;;;;;;;;1.30;99.90;;;;;;6255855;22;20294;-89
2022/01/05 04:10:47;;;;;;;;;;;1.30;99.90;;;;;;6230720;22;19915;-88
2022/01/05 04:13:14;;;;;;;;;;;2.20;99.90;;;;;;6230890;22;19918;-88
2022/01/05 04:15:42;;;;;;;;;;;2.50;99.90;;;;;;6256227;22;19923;-89
2022/01/05 04:18:07;;;;;;;;;;;2.30;99.90;;;;;;6255715;22;19950;-89
2022/01/05 04:20:33;;;;;;;;;;;1.40;99.90;;;;;;6255819;22;19922;-88
2022/01/05 04:22:58;;;;;;;;;;;1.60;99.90;;;;;;6255900;22;20250;-89
2022/01/05 04:25:26;;;;;;;;;;;2.10;99.90;;;;;;6230512;22;19922;-89
2022/01/05 04:27:52;;;;;;;;;;;1.60;99.90;;;;;;6231417;22;20389;-89
2022/01/05 04:30:17;;;;;;;;;;;2.10;99.90;;;;;;6230374;22;19918;-89
2022/01/05 04:32:43;;;;;;;;;;;2.00;99.90;;;;;;6255499;22;19923;-88
2022/01/05 04:35:11;;;;;;;;;;;2.30;99.90;;;;;;6256022;22;20243;-89
2022/01/05 04:37:36;;;;;;;;;;;3.10;99.90;;;;;;6230783;22;19918;-89
2022/01/05 04:40:02;;;;;;;;;;;2.30;99.90;;;;;;6255703;22;19915;-88
2022/01/05 04:42:30;;;;;;;;;;;2.30;99.90;;;;;;6255517;22;19941;-89
2022/01/05 04:44:56;;;;;;;;;;;3.50;99.90;;;;;;6255525;22;20278;-88
2022/01/05 04:47:21;;;;;;;;;;;2.00;99.90;;;;;;6230385;22;19964;-89
2022/01/05 04:49:47;;;;;;;;;;;2.10;99.90;;;;;;6230105;22;19915;-90
2022/01/05 04:52:15;;;;;;;;;;;2.60;99.90;;;;;;6255525;22;19919;-89
2022/01/05 04:54:40;;;;;;;;;;;2.10;99.90;;;;;;6230587;22;19926;-88
2022/01/05 04:57:06;;;;;;;;;;;2.00;99.90;;;;;;6230229;22;19914;-89
2022/01/05 04:59:35;;;;;;;;;;;2.10;99.90;;;;;;6230118;22;19997;-89
2022/01/05 05:02:00;;;;;;;;;;;2.50;99.90;;;;;;6230659;22;19922;-88
2022/01/05 05:04:26;;;;;;;;;;;3.00;99.90;;;;;;6230223;22;19915;-88
2022/01/05 05:06:52;;;;;;;;;;;2.80;99.90;;;;;;6230211;22;19959;-89
2022/01/05 05:09:17;;;;;;;;;;;2.30;99.90;;;;;;6254952;22;19915;-88
2022/01/05 05:11:45;;;;;;;;;;;3.50;99.90;;;;;;6255290;22;19922;-89
2022/01/05 05:14:11;;;;;;;;;;;1.50;99.90;;;;;;6230375;22;19926;-89
2022/01/05 05:16:37;;;;;;;;;;;2.10;99.90;;;;;;6255433;22;19919;-89
2022/01/05 05:19:02;;;;;;;;;;;2.30;99.90;;;;;;6229955;22;19919;-89
2022/01/05 05:21:28;;;;;;;;;;;2.10;99.90;;;;;;6229661;22;19915;-89
2022/01/05 05:23:53;;;;;;;;;;;2.20;99.90;;;;;;6230180;22;19922;-88
2022/01/05 05:26:19;;;;;;;;;;;2.00;99.90;;;;;;6229866;22;19915;-90
2022/01/05 05:28:44;;;;;;;;;;;2.10;99.90;;;;;;6229995;22;19990;-89
2022/01/05 05:31:10;;;;;;;;;;;2.00;99.90;;;;;;6255012;22;20232;-88
2022/01/05 05:33:35;;;;;;;;;;;3.10;99.90;;;;;;6229915;22;19918;-89
2022/01/05 05:36:02;;;;;;;;;;;2.80;99.90;;;;;;6229795;22;19937;-88
2022/01/05 05:38:28;;;;;;;;;;;2.30;99.90;;;;;;6230330;22;19918;-90
2022/01/05 05:40:53;;;;;;;;;;;2.30;99.90;;;;;;6255043;22;20228;-88
2022/01/05 05:43:19;;;;;;;;;;;2.60;99.90;;;;;;6229735;22;19925;-89
2022/01/05 05:45:50;;;;;;;;;;;2.60;99.90;;;;;;6255032;22;19919;-88
2022/01/05 05:48:15;;;;;;;;;;;3.50;99.90;;;;;;6230326;22;19919;-89
2022/01/05 05:50:41;;;;;;;;;;;3.10;99.90;;;;;;6229683;22;19925;-88
2022/01/05 05:53:06;;;;;;;;;;;2.70;99.90;;;;;;6255360;22;19915;-88
2022/01/05 05:55:33;;;;;;;;;;;4.10;99.90;;;;;;6229471;22;19919;-89
2022/01/05 05:57:59;;;;;;;;;;;2.70;99.90;;;;;;6230480;22;19915;-88
2022/01/05 06:00:24;;;;;;;;;;;3.00;99.90;;;;;;6254833;22;19922;-87
2022/01/05 06:02:50;;;;;;;;;;;2.90;99.90;;;;;;6254811;22;19986;-88
2022/01/05 06:05:15;;;;;;;;;;;2.90;99.90;;;;;;6254879;22;19919;-88
2022/01/05 06:07:41;;;;;;;;;;;2.80;99.90;;;;;;6254699;22;19914;-89
2022/01/05 06:10:06;;;;;;;;;;;3.30;99.90;;;;;;6229456;22;19922;-88
2022/01/05 06:12:32;;;;;;;;;;;3.20;99.90;;;;;;6254824;22;19915;-87
2022/01/05 06:14:57;;;;;;;;;;;3.20;99.90;;;;;;6254649;22;19919;-88
2022/01/05 06:17:23;;;;;;;;;;;4.10;99.90;;;;;;6280336;22;19968;-88
2022/01/05 06:19:48;;;;;;;;;;;3.90;99.90;;;;;;6280449;22;19922;-88
2022/01/05 06:22:14;;;;;;;;;;;3.50;99.90;;;;;;6280116;22;19915;-87
2022/01/05 06:24:40;;;;;;;;;;;3.40;99.90;;;;;;6255051;22;19981;-87
2022/01/05 06:27:06;;;;;;;;;;;3.40;99.90;;;;;;6229997;22;19993;-87
2022/01/05 06:29:31;;;;;;;;;;;3.40;99.90;;;;;;6254646;22;20389;-87
2022/01/05 06:31:57;;;;;;;;;;;3.30;99.90;;;;;;6229104;22;19990;-88
2022/01/05 06:34:22;;;;;;;;;;;3.30;99.90;;;;;;6254911;22;19968;-88
2022/01/05 06:36:48;;;;;;;;;;;3.30;99.90;;;;;;6254474;22;19914;-88
2022/01/05 06:39:13;;;;;;;;;;;3.80;99.90;;;;;;6280175;22;20346;-88
2022/01/05 06:41:39;;;;;;;;;;;3.40;99.90;;;;;;6229432;22;19926;-89
2022/01/05 06:44:05;;;;;;;;;;;3.50;99.90;;;;;;6280675;22;19926;-88
2022/01/05 06:46:30;;;;;;;;;;;3.50;99.90;;;;;;6229319;22;19922;-88
2022/01/05 06:48:56;;;;;;;;;;;3.50;99.90;;;;;;6254618;22;19915;-88
2022/01/05 06:51:21;;;;;;;;;;;3.50;99.90;;;;;;6254237;22;19919;-90
2022/01/05 06:53:46;;;;;;;;;;;3.60;99.90;;;;;;6254518;22;19919;-89
2022/01/05 06:56:12;;;;;;;;;;;3.50;99.90;;;;;;6254479;22;20379;-88
2022/01/05 06:58:38;;;;;;;;;;;3.70;99.90;;;;;;6254672;22;19930;-88
2022/01/05 07:01:03;;;;;;;;;;;3.60;99.90;;;;;;6254738;22;19975;-88
2022/01/05 07:03:29;;;;;;;;;;;3.70;99.90;;;;;;6229554;22;19921;-88
2022/01/05 07:05:54;;;;;;;;;;;3.50;99.90;;;;;;6254595;22;19922;-88
2022/01/05 07:08:20;;;;;;;;;;;3.60;99.90;;;;;;6254482;22;20277;-88
2022/01/05 07:10:45;;;;;;;;;;;3.60;99.90;;;;;;6254412;22;19991;-88
2022/01/05 07:13:11;;;;;;;;;;;3.40;99.90;;;;;;6254371;22;19937;-88
2022/01/05 07:15:36;;;;;;;;;;;3.40;99.90;;;;;;6254432;22;19973;-89
2022/01/05 07:18:05;;;;;;;;;;;3.60;99.90;;;;;;6228705;22;19922;-90
2022/01/05 07:20:30;;;;;;;;;;;3.70;99.90;;;;;;6279555;22;19915;-90
2022/01/05 07:22:56;;;;;;;;;;;3.70;99.90;;;;;;6254253;22;19938;-91
2022/01/05 07:25:21;;;;;;;;;;;3.60;99.90;;;;;;6254349;22;19915;-89
2022/01/05 07:27:47;;;;;;;;;;;4.40;99.90;;;;;;6279694;22;19961;-89
2022/01/05 07:30:12;;;;;;;;;;;4.30;99.90;;;;;;6254207;22;20223;-88
2022/01/05 07:32:39;;;;;;;;;;;3.50;99.90;;;;;;6224385;22;20251;-88
2022/01/05 07:35:05;;;;;;;;;;;3.70;99.90;;;;;;6251335;22;19926;-89
2022/01/05 07:37:30;;;;;;;;;;;3.70;99.90;;;;;;6252997;22;19915;-89
2022/01/05 07:39:59;;;;;;;;;;;5.30;99.90;;;;;;6228002;22;19915;-88
2022/01/05 07:42:27;;;;;;;;;;;4.20;99.90;;;;;;6253835;22;19998;-90
2022/01/05 07:44:53;;;;;;;;;;;3.80;99.90;;;;;;6253125;22;19922;-89
2022/01/05 07:47:23;;;;;;;;;;;4.60;99.90;;;;;;6228245;22;19969;-90
2022/01/05 07:49:52;;;;;;;;;;;3.70;99.90;;;;;;6255067;22;19986;-90
2022/01/05 07:52:18;;;;;;;;;;;4.40;99.90;;;;;;6229953;22;19954;-89
2022/01/05 07:54:43;;;;;;;;;;;3.70;99.90;;;;;;6229100;22;20392;-89
2022/01/05 07:57:09;;;;;;;;;;;3.90;99.90;;;;;;6254805;22;20013;-89
2022/01/05 07:59:34;;;;;;;;;;;4.60;99.90;;;;;;6255093;22;19994;-89
2022/01/05 08:02:00;;;;;;;;;;;3.70;99.90;;;;;;6255133;22;20044;-89
2022/01/05 08:04:25;;;;;;;;;;;3.60;99.90;;;;;;6254596;22;20374;-89
2022/01/05 08:06:51;;;;;;;;;;;4.70;99.90;;;;;;6229540;22;19914;-89
2022/01/05 08:09:16;;;;;;;;;;;4.10;99.90;;;;;;6254864;22;19962;-88
2022/01/05 08:11:42;;;;;;;;;;;4.80;99.90;;;;;;6254333;22;19968;-89
2022/01/05 08:14:08;;;;;;;;;;;4.10;99.90;;;;;;6254714;22;20055;-89
2022/01/05 08:16:33;;;;;;;;;;;4.30;99.90;;;;;;6254543;22;19915;-88
2022/01/05 08:18:59;;;;;;;;;;;4.10;99.90;;;;;;6280346;22;19949;-89
2022/01/05 08:21:25;;;;;;;;;;;4.30;99.90;;;;;;6229151;22;19919;-88
2022/01/05 08:23:50;;;;;;;;;;;4.40;99.90;;;;;;6254456;22;19922;-89
2022/01/05 08:26:15;;;;;;;;;;;4.10;99.90;;;;;;6254651;22;19915;-90
2022/01/05 08:28:41;;;;;;;;;;;4.20;99.90;;;;;;6249929;22;20327;-88
2022/01/05 08:31:07;;;;;;;;;;;4.40;99.90;;;;;;6254193;22;19926;-89
2022/01/05 08:33:34;;;;;;;;;;;4.80;99.90;;;;;;6254285;22;19990;-87
2022/01/05 08:36:02;;;;;;;;;;;4.40;99.90;;;;;;6279817;22;20319;-88
2022/01/05 08:38:27;;;;;;;;;;;4.40;99.90;;;;;;6254420;22;19919;-88
2022/01/05 08:40:53;;;;;;;;;;;5.00;99.90;;;;;;6226104;22;20009;-89
2022/01/05 08:43:19;;;;;;;;;;;4.30;99.90;;;;;;6250960;22;19915;-89
2022/01/05 08:45:44;;;;;;;;;;;5.30;99.90;;;;;;6228382;22;19953;-89
2022/01/05 08:48:10;;;;;;;;;;;4.20;99.90;;;;;;6253506;22;19915;-89
2022/01/05 08:50:36;;;;;;;;;;;5.10;99.90;;;;;;6254571;22;19930;-89
2022/01/05 08:53:02;;;;;;;;;;;5.30;99.90;;;;;;6279507;22;19915;-89
2022/01/05 08:55:29;;;;;;;;;;;4.30;99.90;;;;;;6253787;22;20242;-89
2022/01/05 08:57:54;;;;;;;;;;;4.50;99.90;;;;;;6253872;22;19922;-89
2022/01/05 09:00:20;;;;;;;;;;;5.10;99.90;;;;;;6228181;22;19915;-89
2022/01/05 09:02:45;;;;;;;;;;;4.40;99.90;;;;;;6253767;22;19919;-88
2022/01/05 09:05:11;;;;;;;;;;;5.10;99.90;;;;;;6253870;22;19923;-88
2022/01/05 09:07:37;;;;;;;;;;;4.40;99.90;;;;;;6279337;22;20081;-88
2022/01/05 09:10:04;;;;;;;;;;;4.70;99.90;;;;;;6253774;22;19950;-88
2022/01/05 09:12:29;;;;;;;;;;;4.80;99.90;;;;;;6253755;22;19921;-88
2022/01/05 09:14:55;;;;;;;;;;;4.70;99.90;;;;;;6227479;22;19922;-88
2022/01/05 09:17:20;;;;;;;;;;;4.90;99.90;;;;;;6228158;22;19919;-87
2022/01/05 09:19:46;;;;;;;;;;;4.80;99.90;;;;;;6254014;22;19915;-87
2022/01/05 09:22:12;;;;;;;;;;;4.70;99.90;;;;;;6228263;22;20390;-88
2022/01/05 09:24:39;;;;;;;;;;;4.70;99.90;;;;;;6279389;22;19915;-87
2022/01/05 09:27:06;;;;;;;;;;;4.30;99.90;;;;;;6228571;22;19997;-88
2022/01/05 09:29:32;;;;;;;;;;;4.60;99.90;;;;;;6254090;22;19915;-88
2022/01/05 09:32:02;;;;;;;;;;;4.50;99.90;;;;;;6253612;22;19987;-88
2022/01/05 09:34:28;;;;;;;;;;;4.90;99.90;;;;;;6254997;22;19918;-87
2022/01/05 09:36:59;;;;;;;;;;;4.30;99.90;;;;;;6254157;22;19922;-88
2022/01/05 09:42:08;;;;;;;;;;;5.20;99.90;;;;;;6257435;22;19922;-87
2022/01/05 09:44:38;;;;;;;;;;;4.40;99.90;;;;;;6279202;22;19914;-88
2022/01/05 09:47:17;;;;;;;;;;;4.40;99.90;;;;;;6228414;22;19915;-87
2022/01/05 09:49:48;;;;;;;;;;;4.50;99.90;;;;;;6279265;22;19914;-87
2022/01/05 09:52:14;;;;;;;;;;;4.60;99.90;;;;;;6253355;22;19915;-87
2022/01/05 09:54:42;;;;;;;;;;;4.60;99.90;;;;;;6253501;22;19923;-87
2022/01/05 09:57:11;;;;;;;;;;;4.60;99.90;;;;;;6228875;22;20228;-87
2022/01/05 09:59:37;;;;;;;;;;;4.60;99.90;;;;;;6252139;22;19915;-87
2022/01/05 10:02:25;;;;;;;;;;;4.60;99.90;;;;;;6253613;22;19976;-91
2022/01/05 10:04:51;;;;;;;;;;;5.80;99.90;;;;;;6230598;22;19922;-89
2022/01/05 10:07:19;;;;;;;;;;;5.40;99.90;;;;;;6227824;22;19915;-90
2022/01/05 10:09:52;;;;;;;;;;;4.90;99.90;;;;;;6254178;22;20279;-90
2022/01/05 10:12:17;;;;;;;;;;;5.90;99.90;;;;;;6229320;22;20332;-90
2022/01/05 10:14:44;;;;;;;;;;;5.80;99.90;;;;;;6253207;22;20007;-90
2022/01/05 10:17:13;;;;;;;;;;;5.60;99.90;;;;;;6228314;22;19919;-90
2022/01/05 10:19:39;;;;;;;;;;;6.00;99.90;;;;;;6253760;22;19915;-91
2022/01/05 10:22:05;;;;;;;;;;;5.80;99.90;;;;;;6253118;22;20394;-90
2022/01/05 10:24:45;;;;;;;;;;;6.30;99.90;;;;;;6228222;22;19915;-89
2022/01/05 10:27:14;;;;;;;;;;;5.30;99.90;;;;;;6254269;22;19922;-90
2022/01/05 10:29:46;;;;;;;;;;;5.40;99.90;;;;;;6253492;22;20243;-91
2022/01/05 10:32:11;;;;;;;;;;;5.90;99.90;;;;;;6207992;22;19989;-88
2022/01/05 10:34:39;;;;;;;;;;;5.80;99.90;;;;;;6222696;22;20325;-89
2022/01/05 10:37:14;;;;;;;;;;;6.70;99.90;;;;;;6198532;22;20343;-89
2022/01/05 10:39:43;;;;;;;;;;;5.90;99.90;;;;;;6199614;22;20439;-90
2022/01/05 10:42:12;;;;;;;;;;;6.40;99.90;;;;;;6222587;22;19916;-89
2022/01/05 10:44:41;;;;;;;;;;;6.80;99.90;;;;;;6223776;22;19923;-90
2022/01/05 10:47:09;;;;;;;;;;;7.40;99.90;;;;;;6198420;22;19934;-91
2022/01/05 10:49:34;;;;;;;;;;;7.60;99.90;;;;;;6222876;22;20350;-90
2022/01/05 10:52:20;;;;;;;;;;;8.00;99.90;;;;;;6222412;22;19989;-91
2022/01/05 10:54:46;;;;;;;;;;;7.80;99.90;;;;;;6221035;22;20001;-89
2022/01/05 10:57:14;;;;;;;;;;;7.50;99.90;;;;;;6222798;22;20004;-90
2022/01/05 10:59:42;;;;;;;;;;;8.60;99.90;;;;;;6222503;22;20398;-90
2022/01/05 11:02:24;;;;;;;;;;;8.50;99.90;;;;;;6197995;22;19921;-89
2022/01/05 11:04:50;;;;;;;;;;;8.70;99.90;;;;;;6223422;22;19916;-90
2022/01/05 11:07:22;;;;;;;;;;;8.90;99.90;;;;;;6222900;22;19926;-90
2022/01/05 11:09:57;;;;;;;;;;;9.40;99.90;;;;;;6197673;22;19915;-91
2022/01/05 11:12:32;;;;;;;;;;;9.90;99.90;;;;;;6222575;22;19951;-91
2022/01/05 11:15:16;;;;;;;;;;;10.50;99.90;;;;;;6222404;22;19969;-90
2022/01/05 11:18:11;;;;;;;;;;;;;;;;;;;;;
2022/01/05 11:20:42;;;;;;;;;;;10.30;99.90;;;;;;6248337;22;20286;-90
2022/01/05 11:23:10;;;;;;;;;;;10.40;99.90;;;;;;6222967;22;19915;-90
2022/01/05 11:25:38;;;;;;;;;;;10.80;99.90;;;;;;6200097;22;19919;-91
2022/01/05 11:28:08;;;;;;;;;;;10.70;99.90;;;;;;6225485;22;19915;-91
2022/01/05 11:30:33;;;;;;;;;;;10.10;99.90;;;;;;6200203;22;19922;-90
2022/01/05 11:32:59;;;;;;;;;;;9.70;99.90;;;;;;6224558;22;19919;-91
2022/01/05 11:35:25;;;;;;;;;;;9.80;99.90;;;;;;6224608;22;19923;-91
2022/01/05 11:37:50;;;;;;;;;;;10.70;99.90;;;;;;6199642;22;19915;-90
2022/01/05 11:40:23;;;;;;;;;;;8.60;99.90;;;;;;6199180;22;19969;-91
2022/01/05 11:42:52;;;;;;;;;;;8.70;99.90;;;;;;6199716;22;20289;-90
2022/01/05 11:45:34;;;;;;;;;;;9.10;99.90;;;;;;6200138;22;19922;-90
2022/01/05 11:48:40;;;;;;;;;;;8.60;99.90;;;;;;6199646;22;20109;-90
2022/01/05 11:51:06;;;;;;;;;;;8.20;99.90;;;;;;6224355;22;19942;-90
2022/01/05 11:53:44;;;;;;;;;;;8.00;99.90;;;;;;6199368;22;20320;-90
2022/01/05 11:56:11;;;;;;;;;;;7.80;99.90;;;;;;6199176;22;19992;-89
2022/01/05 11:58:49;;;;;;;;;;;8.50;99.90;;;;;;6195678;22;20316;-90
2022/01/05 12:01:17;;;;;;;;;;;8.10;99.90;;;;;;6197037;22;19938;-90
2022/01/05 12:04:00;;;;;;;;;;;7.50;99.90;;;;;;6248211;22;19919;-89
2022/01/05 12:06:55;;;;;;;;;;;7.40;99.90;;;;;;6249364;22;20216;-89
2022/01/05 12:09:25;;;;;;;;;;;7.40;99.90;;;;;;6213754;22;19982;-89
2022/01/05 12:11:54;;;;;;;;;;;7.60;99.90;;;;;;6199160;22;19919;-89
2022/01/05 12:14:19;;;;;;;;;;;7.30;99.90;;;;;;6199450;22;20336;-90
2022/01/05 12:17:05;;;;;;;;;;;7.50;99.90;;;;;;6250009;22;19951;-89
2022/01/05 12:19:34;;;;;;;;;;;7.10;99.90;;;;;;6249609;22;19923;-90
2022/01/05 12:22:10;;;;;;;;;;;7.30;99.90;;;;;;6199739;22;19915;-91
2022/01/05 12:24:55;;;;;;;;;;;6.90;99.90;;;;;;6224951;22;19958;-90
2022/01/05 12:27:24;;;;;;;;;;;6.80;99.90;;;;;;6249023;22;19993;-90
2022/01/05 12:29:49;;;;;;;;;;;7.20;99.90;;;;;;6223705;22;19915;-88
2022/01/05 12:32:31;;;;;;;;;;;7.10;99.90;;;;;;6219269;22;20257;-90
2022/01/05 12:34:57;;;;;;;;;;;7.00;99.90;;;;;;6228387;22;19961;-89
2022/01/05 12:37:45;;;;;;;;;;;6.90;99.90;;;;;;6229447;22;19915;-89
2022/01/05 12:40:29;;;;;;;;;;;7.00;99.90;;;;;;6254377;22;19914;-89
2022/01/05 12:43:13;;;;;;;;;;;7.00;99.90;;;;;;6279846;22;20236;-90
2022/01/05 12:45:51;;;;;;;;;;;7.00;99.90;;;;;;6254581;22;19915;-89
2022/01/05 12:48:34;;;;;;;;;;;6.90;99.90;;;;;;6227428;22;19915;-90
2022/01/05 12:51:18;;;;;;;;;;;6.80;99.90;;;;;;6279490;22;20212;-90
2022/01/05 12:53:52;;;;;;;;;;;6.70;99.90;;;;;;6253964;22;19922;-91
2022/01/05 12:56:24;;;;;;;;;;;6.70;99.90;;;;;;6254274;22;20247;-90
2022/01/05 12:58:51;;;;;;;;;;;6.70;99.90;;;;;;6228635;22;19915;-89
2022/01/05 13:01:47;;;;;;;;;;;7.00;99.90;;;;;;6228968;22;19964;-90
2022/01/05 13:04:23;;;;;;;;;;;;;;;;;;;;;
2022/01/05 13:06:51;;;;;;;;;;;7.10;99.90;;;;;;6279741;22;19964;-91
2022/01/05 13:09:26;;;;;;;;;;;5.80;99.90;;;;;;6229397;22;19976;-91
2022/01/05 13:11:59;;;;;;;;;;;6.10;99.90;;;;;;6228565;22;19961;-90
2022/01/05 13:14:31;;;;;;;;;;;5.80;99.90;;;;;;6229476;22;20235;-90
2022/01/05 13:17:03;;;;;;;;;;;5.70;99.90;;;;;;6253865;22;19919;-90
2022/01/05 13:19:47;;;;;;;;;;;5.60;99.90;;;;;;6254311;22;19965;-90
2022/01/05 13:22:19;;;;;;;;;;;5.60;99.90;;;;;;6279187;22;20375;-91
2022/01/05 13:25:05;;;;;;;;;;;5.80;99.90;;;;;;6253520;22;19983;-90
2022/01/05 13:27:46;;;;;;;;;;;5.80;99.90;;;;;;6254157;22;19990;-91
2022/01/05 13:30:19;;;;;;;;;;;5.80;99.90;;;;;;6229264;22;19923;-90
2022/01/05 13:32:48;;;;;;;;;;;5.80;99.90;;;;;;6228416;22;20384;-89
2022/01/05 13:35:17;;;;;;;;;;;5.70;99.90;;;;;;6228552;22;20320;-90
2022/01/05 13:37:47;;;;;;;;;;;5.70;99.90;;;;;;6229258;22;19915;-90
2022/01/05 13:40:44;;;;;;;;;;;5.80;99.90;;;;;;6253584;22;20292;-89
2022/01/05 13:43:14;;;;;;;;;;;6.10;99.90;;;;;;6243769;22;19990;-90
2022/01/05 13:45:49;;;;;;;;;;;6.00;99.90;;;;;;6228549;22;19919;-90
2022/01/05 13:48:15;;;;;;;;;;;5.90;99.90;;;;;;6230307;22;20002;-89
2022/01/05 13:50:53;;;;;;;;;;;7.50;99.90;;;;;;6253640;22;19922;-90
2022/01/05 13:53:25;;;;;;;;;;;6.00;99.90;;;;;;6253705;22;19914;-90
2022/01/05 13:55:54;;;;;;;;;;;5.30;99.90;;;;;;6254004;22;19968;-90
2022/01/05 13:58:23;;;;;;;;;;;5.60;99.90;;;;;;6228808;22;19937;-91
2022/01/05 14:00:51;;;;;;;;;;;5.90;99.90;;;;;;6228275;22;19958;-90
2022/01/05 14:03:24;;;;;;;;;;;5.90;99.90;;;;;;6228293;22;20246;-90
2022/01/05 14:06:02;;;;;;;;;;;5.40;99.90;;;;;;6253468;22;19914;-91
2022/01/05 14:08:38;;;;;;;;;;;5.60;99.90;;;;;;6229676;22;19914;-91
2022/01/05 14:11:30;;;;;;;;;;;5.40;99.90;;;;;;6228778;22;19915;-91
2022/01/05 14:14:06;;;;;;;;;;;5.20;99.90;;;;;;6230169;22;19918;-91
2022/01/05 14:16:37;;;;;;;;;;;4.90;99.90;;;;;;6228252;22;19994;-91
2022/01/05 14:19:10;;;;;;;;;;;5.10;99.90;;;;;;6252760;22;19914;-91
2022/01/05 14:21:44;;;;;;;;;;;5.40;99.90;;;;;;6278967;22;20323;-91
2022/01/05 14:24:26;;;;;;;;;;;5.80;99.90;;;;;;6228135;22;19925;-91
2022/01/05 14:26:57;;;;;;;;;;;5.20;99.90;;;;;;6230512;22;20338;-90
2022/01/05 14:29:28;;;;;;;;;;;4.80;99.90;;;;;;6228456;22;19964;-90
2022/01/05 14:32:23;;;;;;;;;;;4.90;99.90;;;;;;6228388;22;19919;-91
2022/01/05 14:34:53;;;;;;;;;;;5.20;99.90;;;;;;6229348;22;19919;-90
2022/01/05 14:37:27;;;;;;;;;;;5.90;99.90;;;;;;6278791;22;19986;-90
2022/01/05 14:40:12;;;;;;;;;;;6.00;99.90;;;;;;6227687;22;20442;-90